Time;durP1;ratioP1;P1;durP2;ratioP2;P2;SDS_P1;SDS_P2;PMS_P1;PMS_P2;Temp;Humidity;BMP_temperature;BMP_pressure;BME280_temperature;BME280_humidity;BME280_pressure;Samples;Min_cycle;Max_cycle;Signal;HPM_P1;HPM_P2
2023/04/25 00:00:17;;;;;;;22.23;5.00;;;7.00;99.90;;;;;;4992361;28;20081;-82
2023/04/25 00:02:43;;;;;;;23.42;5.15;;;7.00;99.90;;;;;;5009025;28;20066;-82
2023/04/25 00:05:09;;;;;;;25.15;5.20;;;7.00;99.90;;;;;;5008827;28;20046;-83
2023/04/25 00:07:35;;;;;;;18.70;4.70;;;6.90;99.90;;;;;;5010050;28;20101;-83
2023/04/25 00:10:00;;;;;;;18.63;4.90;;;7.00;99.90;;;;;;5011953;28;20062;-83
2023/04/25 00:12:28;;;;;;;24.45;5.30;;;6.90;99.90;;;;;;5012232;28;20054;-82
2023/04/25 00:14:57;;;;;;;19.00;5.20;;;6.90;99.90;;;;;;5012004;28;20101;-82
2023/04/25 00:17:26;;;;;;;22.02;5.07;;;6.90;99.90;;;;;;4995972;28;20437;-82
2023/04/25 00:19:52;;;;;;;20.08;4.88;;;6.90;99.90;;;;;;5012101;28;20467;-82
2023/04/25 00:22:18;;;;;;;18.35;4.80;;;6.90;99.90;;;;;;4995967;28;20129;-83
2023/04/25 00:24:44;;;;;;;19.98;4.65;;;6.90;99.90;;;;;;4995549;28;20042;-82
2023/04/25 00:27:09;;;;;;;25.20;5.15;;;6.80;99.90;;;;;;5012235;28;20050;-82
2023/04/25 00:29:35;;;;;;;23.35;4.93;;;6.90;99.90;;;;;;5028635;28;20466;-83
2023/04/25 00:32:02;;;;;;;19.30;4.35;;;6.80;99.90;;;;;;5012068;28;20046;-82
2023/04/25 00:34:27;;;;;;;20.10;5.00;;;6.80;99.90;;;;;;5012041;28;20062;-82
2023/04/25 00:36:53;;;;;;;17.10;4.57;;;6.80;99.90;;;;;;5012095;28;20269;-82
2023/04/25 00:39:19;;;;;;;19.73;4.82;;;6.70;99.90;;;;;;5028467;28;20441;-81
2023/04/25 00:41:45;;;;;;;20.83;5.00;;;6.70;99.90;;;;;;4995120;28;20046;-82
2023/04/25 00:44:11;;;;;;;22.63;4.97;;;6.60;99.90;;;;;;4995512;28;20056;-82
2023/04/25 00:46:39;;;;;;;21.58;4.93;;;6.60;99.90;;;;;;4979001;28;20050;-82
2023/04/25 00:49:05;;;;;;;18.52;4.80;;;6.50;99.90;;;;;;4995462;28;20065;-82
2023/04/25 00:51:32;;;;;;;21.70;4.72;;;6.50;99.90;;;;;;4979200;28;20478;-81
2023/04/25 00:53:59;;;;;;;19.48;4.68;;;6.40;99.90;;;;;;4995391;28;20046;-82
2023/04/25 00:56:25;;;;;;;20.33;5.40;;;6.40;99.90;;;;;;5011317;28;20405;-82
2023/04/25 00:58:56;;;;;;;17.48;4.95;;;6.40;99.90;;;;;;5011590;28;20065;-81
2023/04/25 01:01:23;;;;;;;19.27;5.13;;;6.30;99.90;;;;;;5010998;28;20062;-81
2023/04/25 01:03:50;;;;;;;19.65;5.20;;;6.30;99.90;;;;;;4994839;28;20058;-82
2023/04/25 01:06:17;;;;;;;20.58;4.95;;;6.30;99.90;;;;;;5011490;28;20046;-80
2023/04/25 01:08:42;;;;;;;26.33;5.40;;;6.30;99.90;;;;;;4994734;28;20046;-81
2023/04/25 01:11:08;;;;;;;21.88;5.13;;;6.30;99.90;;;;;;5011426;28;20188;-81
2023/04/25 01:13:35;;;;;;;20.42;4.88;;;6.30;99.90;;;;;;4994820;28;20474;-82
2023/04/25 01:16:01;;;;;;;18.25;5.13;;;6.20;99.90;;;;;;5011264;28;20554;-82
2023/04/25 01:18:27;;;;;;;19.20;4.72;;;6.20;99.90;;;;;;4994559;28;20042;-81
2023/04/25 01:20:54;;;;;;;21.10;5.30;;;6.30;99.90;;;;;;5011134;28;20497;-81
2023/04/25 01:23:21;;;;;;;21.10;4.97;;;6.20;99.90;;;;;;4994735;28;20077;-82
2023/04/25 01:25:48;;;;;;;21.38;4.93;;;6.20;99.90;;;;;;5011101;28;20093;-82
2023/04/25 01:28:14;;;;;;;19.58;4.65;;;6.10;99.90;;;;;;5010992;28;20129;-82
2023/04/25 01:30:40;;;;;;;18.30;4.43;;;6.10;99.90;;;;;;5010918;28;20398;-83
2023/04/25 01:33:08;;;;;;;19.30;4.55;;;6.10;99.90;;;;;;5010981;28;20483;-82
2023/04/25 01:35:34;;;;;;;20.20;4.57;;;6.10;99.90;;;;;;5010747;28;20068;-82
2023/04/25 01:38:00;;;;;;;16.98;4.43;;;6.00;99.90;;;;;;5010750;28;20053;-83
2023/04/25 01:40:27;;;;;;;17.50;4.43;;;6.00;99.90;;;;;;4994307;28;20077;-83
2023/04/25 01:42:54;;;;;;;20.30;4.97;;;6.00;99.90;;;;;;5010767;28;20133;-81
2023/04/25 01:45:20;;;;;;;19.90;4.80;;;6.00;99.90;;;;;;4994219;28;20520;-80
2023/04/25 01:47:50;;;;;;;19.00;4.85;;;6.00;99.90;;;;;;5010392;28;20084;-81
2023/04/25 01:50:18;;;;;;;20.50;4.80;;;5.90;99.90;;;;;;5010594;28;20054;-81
2023/04/25 01:52:46;;;;;;;19.35;4.80;;;5.90;99.90;;;;;;5010595;28;20085;-81
2023/04/25 01:55:12;;;;;;;17.00;4.55;;;5.80;99.90;;;;;;4994186;28;20434;-80
2023/04/25 01:57:38;;;;;;;22.25;5.13;;;5.80;99.90;;;;;;5010658;28;20085;-81
2023/04/25 02:00:06;;;;;;;19.90;4.88;;;5.70;99.90;;;;;;5009964;28;20418;-80
2023/04/25 02:02:32;;;;;;;20.20;4.72;;;5.70;99.90;;;;;;5010155;28;20461;-81
2023/04/25 02:04:58;;;;;;;19.60;4.32;;;5.70;99.90;;;;;;4994032;28;20046;-81
2023/04/25 02:07:24;;;;;;;18.30;4.57;;;5.70;99.90;;;;;;4993620;28;20469;-81
2023/04/25 02:09:50;;;;;;;19.92;5.10;;;5.70;99.90;;;;;;4961410;28;20411;-81
2023/04/25 02:12:15;;;;;;;17.45;5.00;;;5.70;99.90;;;;;;4993801;28;20057;-81
2023/04/25 02:14:41;;;;;;;18.08;4.70;;;5.70;99.90;;;;;;5010097;28;20201;-81
2023/04/25 02:17:07;;;;;;;16.88;4.65;;;5.70;99.90;;;;;;5026266;28;20046;-80
2023/04/25 02:19:33;;;;;;;20.70;4.97;;;5.70;99.90;;;;;;4977512;28;20049;-81
2023/04/25 02:21:59;;;;;;;20.48;4.85;;;5.70;99.90;;;;;;4993672;28;20046;-80
2023/04/25 02:24:25;;;;;;;17.25;4.43;;;5.70;99.90;;;;;;4993725;28;20390;-80
2023/04/25 02:26:51;;;;;;;16.88;4.43;;;5.70;99.90;;;;;;5009962;28;20052;-81
2023/04/25 02:29:16;;;;;;;19.20;4.68;;;5.70;99.90;;;;;;4977324;28;20422;-80
2023/04/25 02:31:42;;;;;;;19.60;4.80;;;5.80;99.90;;;;;;4994127;28;20073;-80
2023/04/25 02:34:08;;;;;;;16.83;4.57;;;5.80;99.90;;;;;;4992950;28;20078;-80
2023/04/25 02:36:35;;;;;;;19.20;5.00;;;5.80;99.90;;;;;;5009521;28;20053;-81
2023/04/25 02:39:02;;;;;;;18.42;4.40;;;5.80;99.90;;;;;;4993487;28;20089;-80
2023/04/25 02:41:29;;;;;;;15.80;4.65;;;5.80;99.90;;;;;;4993181;28;20096;-80
2023/04/25 02:43:54;;;;;;;20.92;4.72;;;5.80;99.90;;;;;;4990182;28;20051;-80
2023/04/25 02:46:20;;;;;;;21.20;4.85;;;5.80;99.90;;;;;;4989901;28;20533;-80
2023/04/25 02:48:46;;;;;;;17.58;4.43;;;5.80;99.90;;;;;;4990095;28;20054;-81
2023/04/25 02:51:12;;;;;;;17.42;4.80;;;5.80;99.90;;;;;;4990108;28;20070;-80
2023/04/25 02:53:38;;;;;;;16.02;4.30;;;5.80;99.90;;;;;;5006495;28;20043;-80
2023/04/25 02:56:04;;;;;;;18.75;4.65;;;5.80;99.90;;;;;;4990046;28;20047;-80
2023/04/25 02:58:30;;;;;;;22.55;5.07;;;5.80;99.90;;;;;;4990050;28;20066;-80
2023/04/25 03:00:55;;;;;;;21.70;4.93;;;5.80;99.90;;;;;;5005713;28;20419;-80
2023/04/25 03:03:21;;;;;;;19.38;4.97;;;5.90;99.90;;;;;;4989874;28;20059;-80
2023/04/25 03:05:50;;;;;;;21.10;5.03;;;5.90;99.90;;;;;;5006330;28;20407;-80
2023/04/25 03:08:16;;;;;;;20.60;4.50;;;5.90;99.90;;;;;;4989872;28;20514;-79
2023/04/25 03:10:42;;;;;;;15.48;4.30;;;5.90;99.90;;;;;;4989894;28;20051;-80
2023/04/25 03:13:08;;;;;;;18.25;4.40;;;5.90;99.90;;;;;;5019994;28;20046;-80
2023/04/25 03:15:35;;;;;;;17.25;4.28;;;5.90;99.90;;;;;;4993110;28;20133;-80
2023/04/25 03:18:01;;;;;;;16.80;4.20;;;5.90;99.90;;;;;;5009318;28;20069;-80
2023/04/25 03:20:27;;;;;;;16.40;4.32;;;5.90;99.90;;;;;;5009208;28;20054;-80
2023/04/25 03:22:53;;;;;;;14.50;4.22;;;5.90;99.90;;;;;;5009356;28;20054;-81
2023/04/25 03:25:19;;;;;;;20.88;4.45;;;5.90;99.90;;;;;;5009364;28;20062;-80
2023/04/25 03:27:44;;;;;;;18.83;4.20;;;5.90;99.90;;;;;;5008995;28;20053;-81
2023/04/25 03:30:13;;;;;;;15.10;4.30;;;5.80;99.90;;;;;;5009130;28;20065;-80
2023/04/25 03:32:39;;;;;;;18.55;4.03;;;5.80;99.90;;;;;;5009353;28;20050;-80
2023/04/25 03:35:05;;;;;;;17.40;4.20;;;5.90;99.90;;;;;;5025617;28;20120;-80
2023/04/25 03:37:31;;;;;;;20.33;4.25;;;5.80;99.90;;;;;;5009325;28;20058;-80
2023/04/25 03:39:56;;;;;;;20.50;4.30;;;5.80;99.90;;;;;;5009137;28;20129;-80
2023/04/25 03:42:22;;;;;;;16.75;4.13;;;5.80;99.90;;;;;;5009900;28;20057;-80
2023/04/25 03:44:49;;;;;;;19.00;3.97;;;5.80;99.90;;;;;;5012792;28;20085;-80
2023/04/25 03:47:16;;;;;;;17.48;4.00;;;5.80;99.90;;;;;;4996462;28;20065;-80
2023/04/25 03:49:41;;;;;;;18.55;4.18;;;5.80;99.90;;;;;;5029454;28;20054;-81
2023/04/25 03:52:07;;;;;;;15.50;3.45;;;5.80;99.90;;;;;;4996212;28;20113;-81
2023/04/25 03:54:33;;;;;;;18.83;3.85;;;5.80;99.90;;;;;;5012729;28;20050;-80
2023/04/25 03:56:59;;;;;;;25.10;4.18;;;5.80;99.90;;;;;;5012675;28;20085;-81
2023/04/25 03:59:26;;;;;;;21.73;3.88;;;5.80;99.90;;;;;;5012606;28;20046;-81
2023/04/25 04:01:54;;;;;;;17.05;3.67;;;5.80;99.90;;;;;;4995521;28;20160;-81
2023/04/25 04:04:20;;;;;;;17.08;3.65;;;5.80;99.90;;;;;;4980115;28;20050;-81
2023/04/25 04:06:46;;;;;;;16.70;3.70;;;5.80;99.90;;;;;;4996023;28;20050;-80
2023/04/25 04:09:15;;;;;;;16.15;3.50;;;5.80;99.90;;;;;;5012511;28;20066;-81
2023/04/25 04:11:41;;;;;;;18.48;3.35;;;5.80;99.90;;;;;;4996207;28;20438;-80
2023/04/25 04:14:10;;;;;;;15.43;3.25;;;5.80;99.90;;;;;;4980158;28;20462;-81
2023/04/25 04:16:36;;;;;;;20.98;3.90;;;5.80;99.90;;;;;;5012414;28;20046;-81
2023/04/25 04:19:02;;;;;;;16.85;3.83;;;5.80;99.90;;;;;;4979453;28;20058;-81
2023/04/25 04:21:28;;;;;;;18.77;3.70;;;5.80;99.90;;;;;;5011942;28;20049;-81
2023/04/25 04:23:54;;;;;;;14.90;3.60;;;5.80;99.90;;;;;;5012256;28;20051;-81
2023/04/25 04:26:23;;;;;;;16.58;3.33;;;5.80;99.90;;;;;;5012229;28;20053;-81
2023/04/25 04:28:55;;;;;;;20.08;3.65;;;5.80;99.90;;;;;;5012167;28;20050;-80
2023/04/25 04:31:21;;;;;;;17.52;3.45;;;5.80;99.90;;;;;;4995811;28;20113;-81
2023/04/25 04:33:51;;;;;;;17.48;3.50;;;5.80;99.90;;;;;;4995607;28;20133;-80
2023/04/25 04:36:19;;;;;;;18.50;3.70;;;5.80;99.90;;;;;;5012061;28;20141;-80
2023/04/25 04:38:45;;;;;;;18.77;3.60;;;5.80;99.90;;;;;;5011941;28;20057;-80
2023/04/25 04:41:11;;;;;;;12.80;3.38;;;5.80;99.90;;;;;;5028109;28;20050;-80
2023/04/25 04:43:37;;;;;;;15.65;3.40;;;5.80;99.90;;;;;;4995530;28;20054;-81
2023/04/25 04:46:03;;;;;;;14.95;3.30;;;5.80;99.90;;;;;;5011719;28;20494;-81
2023/04/25 04:48:32;;;;;;;12.50;3.10;;;5.80;99.90;;;;;;5011781;28;20058;-81
2023/04/25 04:50:58;;;;;;;11.68;3.15;;;5.80;99.90;;;;;;4995151;28;20402;-81
2023/04/25 04:53:24;;;;;;;13.07;2.80;;;5.70;99.90;;;;;;4978924;28;20498;-81
2023/04/25 04:55:50;;;;;;;12.68;2.92;;;5.70;99.90;;;;;;4995429;28;20157;-80
2023/04/25 04:58:15;;;;;;;9.50;2.40;;;5.70;99.90;;;;;;4994942;28;20494;-80
2023/04/25 05:00:41;;;;;;;12.82;2.75;;;5.70;99.90;;;;;;5011173;28;20051;-80
2023/04/25 05:03:07;;;;;;;13.25;2.80;;;5.70;99.90;;;;;;5011135;28;20046;-81
2023/04/25 05:05:33;;;;;;;13.73;2.58;;;5.70;99.90;;;;;;4995143;28;20069;-80
2023/04/25 05:07:58;;;;;;;10.43;2.58;;;5.70;99.90;;;;;;4995097;28;20046;-80
2023/04/25 05:10:25;;;;;;;12.23;2.45;;;5.70;99.90;;;;;;4995063;28;20108;-80
2023/04/25 05:12:51;;;;;;;13.57;2.60;;;5.80;99.90;;;;;;5011342;28;20188;-81
2023/04/25 05:15:16;;;;;;;10.27;2.40;;;5.90;99.90;;;;;;4962558;28;20125;-80
2023/04/25 05:17:42;;;;;;;9.63;2.20;;;5.90;99.90;;;;;;4994950;28;20046;-80
2023/04/25 05:20:11;;;;;;;10.45;2.13;;;6.00;99.90;;;;;;5010583;28;20081;-81
2023/04/25 05:22:37;;;;;;;11.25;2.60;;;6.10;99.90;;;;;;4994866;28;20047;-81
2023/04/25 05:25:03;;;;;;;12.20;2.25;;;6.20;99.90;;;;;;4994747;28;20043;-81
2023/04/25 05:27:29;;;;;;;10.65;2.70;;;6.40;99.90;;;;;;5010747;28;20447;-81
2023/04/25 05:29:54;;;;;;;9.65;2.20;;;6.60;99.90;;;;;;5010972;28;20094;-81
2023/04/25 05:32:20;;;;;;;13.07;2.70;;;6.90;99.90;;;;;;5011050;28;20124;-82
2023/04/25 05:34:46;;;;;;;13.45;2.65;;;7.00;99.90;;;;;;4994536;28;20489;-81
2023/04/25 05:37:12;;;;;;;9.73;2.10;;;7.40;99.90;;;;;;5010677;28;20058;-81
2023/04/25 05:39:37;;;;;;;11.20;2.50;;;7.60;99.90;;;;;;5010676;28;20490;-81
2023/04/25 05:42:03;;;;;;;13.23;2.20;;;7.90;99.90;;;;;;5010431;28;20085;-81
2023/04/25 05:44:30;;;;;;;12.65;2.35;;;8.10;99.90;;;;;;5010843;28;20464;-81
2023/04/25 05:46:56;;;;;;;11.45;2.40;;;8.30;99.90;;;;;;5010456;28;20046;-81
2023/04/25 05:49:21;;;;;;;11.50;2.28;;;8.20;99.90;;;;;;4994322;28;20095;-81
2023/04/25 05:51:47;;;;;;;11.25;2.22;;;8.30;99.90;;;;;;4993898;28;20050;-81
2023/04/25 05:54:13;;;;;;;9.30;1.70;;;8.60;99.90;;;;;;4994271;28;20047;-82
2023/04/25 05:56:39;;;;;;;13.52;2.50;;;8.90;99.90;;;;;;4994133;28;20058;-82
2023/04/25 05:59:05;;;;;;;9.85;2.20;;;9.30;99.90;;;;;;4994061;28;20125;-82
2023/04/25 06:01:31;;;;;;;11.35;2.25;;;9.50;99.90;;;;;;4993446;28;20074;-81
2023/04/25 06:03:57;;;;;;;10.13;2.10;;;9.90;99.90;;;;;;5010479;28;20108;-82
2023/04/25 06:06:23;;;;;;;11.70;2.33;;;9.70;99.90;;;;;;5009656;28;20050;-81
2023/04/25 06:08:49;;;;;;;9.07;2.20;;;9.50;99.90;;;;;;4993935;28;20050;-81
2023/04/25 06:11:17;;;;;;;10.45;2.20;;;9.20;99.90;;;;;;4993959;28;20054;-81
2023/04/25 06:13:43;;;;;;;11.95;2.50;;;9.10;99.90;;;;;;5010169;28;20057;-81
2023/04/25 06:16:09;;;;;;;9.55;2.22;;;9.00;99.90;;;;;;4993573;28;20057;-82
2023/04/25 06:18:35;;;;;;;11.25;2.42;;;9.00;99.90;;;;;;4993750;28;20133;-82
2023/04/25 06:21:00;;;;;;;14.02;2.53;;;9.00;99.90;;;;;;5009784;28;20398;-81
2023/04/25 06:23:26;;;;;;;8.80;2.35;;;8.90;99.90;;;;;;5009843;28;20125;-82
2023/04/25 06:25:52;;;;;;;10.98;2.30;;;9.10;99.90;;;;;;4993670;28;20141;-82
2023/04/25 06:28:19;;;;;;;11.07;2.17;;;9.70;99.90;;;;;;5009514;28;20042;-81
2023/04/25 06:30:45;;;;;;;11.98;2.40;;;9.80;99.90;;;;;;4977265;28;20058;-82
2023/04/25 06:33:10;;;;;;;10.18;2.40;;;10.10;99.90;;;;;;5009819;28;20054;-82
2023/04/25 06:35:36;;;;;;;12.38;2.58;;;10.50;99.90;;;;;;5009793;28;20441;-83
2023/04/25 06:38:02;;;;;;;10.85;2.17;;;10.90;99.90;;;;;;4993159;28;20058;-82
2023/04/25 06:40:28;;;;;;;11.70;2.28;;;11.40;99.90;;;;;;5009950;28;20093;-82
2023/04/25 06:42:53;;;;;;;11.95;2.50;;;12.00;99.90;;;;;;5009689;28;20141;-82
2023/04/25 06:45:19;;;;;;;10.75;2.58;;;12.10;99.90;;;;;;5009748;28;20553;-81
2023/04/25 06:47:45;;;;;;;10.77;2.60;;;11.90;99.90;;;;;;5009445;28;20050;-82
2023/04/25 06:50:11;;;;;;;11.02;2.50;;;11.50;99.90;;;;;;4992813;28;20561;-80
2023/04/25 06:52:36;;;;;;;9.07;2.30;;;11.70;99.90;;;;;;5009100;28;20050;-81
2023/04/25 06:55:02;;;;;;;9.63;2.40;;;11.70;99.90;;;;;;4992974;28;20097;-81
2023/04/25 06:57:28;;;;;;;12.18;2.53;;;11.50;99.90;;;;;;5009315;28;20395;-81
2023/04/25 06:59:54;;;;;;;10.73;2.53;;;11.70;99.90;;;;;;5008955;28;20057;-81
2023/04/25 07:02:21;;;;;;;12.57;2.70;;;11.80;99.90;;;;;;5009270;28;20133;-81
2023/04/25 07:04:47;;;;;;;10.25;2.35;;;11.90;99.90;;;;;;4977112;28;20046;-81
2023/04/25 07:07:12;;;;;;;11.18;2.40;;;12.10;99.90;;;;;;5009576;28;20133;-81
2023/04/25 07:09:38;;;;;;;11.27;2.10;;;12.00;99.90;;;;;;5009568;28;20429;-81
2023/04/25 07:12:04;;;;;;;12.02;2.25;;;11.90;99.90;;;;;;5009124;28;20100;-81
2023/04/25 07:14:30;;;;;;;9.88;2.10;;;12.00;99.90;;;;;;4993138;28;20042;-80
2023/04/25 07:16:56;;;;;;;10.02;2.40;;;12.40;99.90;;;;;;4994891;28;20394;-80
2023/04/25 07:19:26;;;;;;;9.50;2.30;;;12.10;99.20;;;;;;5029984;28;20046;-81
2023/04/25 07:21:54;;;;;;;7.68;2.10;;;12.50;99.90;;;;;;4996760;28;20052;-81
2023/04/25 07:24:20;;;;;;;12.43;2.47;;;12.60;97.90;;;;;;5013010;28;20053;-81
2023/04/25 07:26:46;;;;;;;10.98;2.17;;;12.50;98.30;;;;;;5012652;28;20046;-81
2023/04/25 07:29:11;;;;;;;11.75;2.30;;;12.30;98.20;;;;;;5013291;28;20050;-81
2023/04/25 07:31:38;;;;;;;12.93;2.28;;;11.90;98.50;;;;;;5012431;28;20090;-81
2023/04/25 07:34:04;;;;;;;11.60;2.60;;;11.60;99.90;;;;;;4996818;28;20048;-81
2023/04/25 07:36:30;;;;;;;9.02;2.20;;;11.00;99.80;;;;;;4996517;28;20149;-81
2023/04/25 07:38:56;;;;;;;9.15;2.10;;;10.70;99.90;;;;;;5012564;28;20054;-81
2023/04/25 07:41:22;;;;;;;14.38;2.30;;;10.30;99.90;;;;;;5012826;28;20153;-81
2023/04/25 07:43:48;;;;;;;8.77;2.10;;;10.20;99.90;;;;;;5012254;28;20053;-81
2023/04/25 07:46:14;;;;;;;9.25;2.13;;;10.40;99.90;;;;;;4996055;28;20050;-81
2023/04/25 07:48:39;;;;;;;9.38;1.90;;;10.50;99.90;;;;;;5013004;28;20061;-82
2023/04/25 07:51:07;;;;;;;8.90;2.00;;;10.60;99.90;;;;;;5012740;28;20385;-81
2023/04/25 07:53:37;;;;;;;8.60;2.10;;;10.80;99.90;;;;;;5029146;28;20053;-81
2023/04/25 07:56:03;;;;;;;12.40;1.90;;;10.80;99.90;;;;;;5012737;28;20383;-82
2023/04/25 07:58:29;;;;;;;9.45;2.03;;;10.70;99.40;;;;;;4996219;28;20054;-81
2023/04/25 08:00:55;;;;;;;9.15;2.30;;;10.70;99.90;;;;;;4995697;28;20047;-82
2023/04/25 08:03:21;;;;;;;8.40;1.83;;;10.80;99.90;;;;;;5012392;28;20141;-81
2023/04/25 08:05:47;;;;;;;10.18;1.95;;;11.00;99.90;;;;;;5012605;28;20083;-82
2023/04/25 08:08:12;;;;;;;10.55;2.03;;;11.20;99.90;;;;;;5012516;28;20054;-82
2023/04/25 08:10:38;;;;;;;8.63;1.80;;;10.90;99.20;;;;;;5012412;28;20133;-80
2023/04/25 08:13:04;;;;;;;9.45;2.00;;;10.60;99.80;;;;;;5012049;28;20105;-80
2023/04/25 08:15:30;;;;;;;11.25;2.17;;;10.20;99.60;;;;;;4995587;28;20050;-79
2023/04/25 08:17:56;;;;;;;9.93;2.00;;;9.80;99.90;;;;;;5011915;28;20058;-83
2023/04/25 08:20:22;;;;;;;9.85;2.05;;;9.30;99.90;;;;;;5011703;28;20046;-82
2023/04/25 08:22:48;;;;;;;8.15;1.85;;;9.20;99.90;;;;;;5012386;28;20050;-83
2023/04/25 08:25:14;;;;;;;7.05;1.70;;;9.50;99.90;;;;;;5011965;28;20058;-82
2023/04/25 08:27:40;;;;;;;10.00;1.90;;;10.10;99.90;;;;;;5011432;28;20490;-83
2023/04/25 08:30:08;;;;;;;8.95;1.88;;;10.40;99.90;;;;;;4995566;28;20068;-83
2023/04/25 08:32:34;;;;;;;9.60;1.92;;;10.80;99.00;;;;;;4995766;28;20100;-83
2023/04/25 08:35:00;;;;;;;7.15;1.80;;;10.50;97.80;;;;;;4995722;28;20502;-83
2023/04/25 08:37:26;;;;;;;6.50;1.60;;;10.50;99.20;;;;;;5012026;28;20073;-81
2023/04/25 08:39:53;;;;;;;9.80;2.00;;;10.40;99.50;;;;;;4995491;28;20043;-83
2023/04/25 08:42:21;;;;;;;8.77;1.92;;;10.10;98.80;;;;;;5028303;28;20042;-82
2023/04/25 08:44:48;;;;;;;8.23;2.42;;;9.80;99.50;;;;;;4995555;28;20104;-82
2023/04/25 08:47:14;;;;;;;9.57;1.90;;;9.60;99.90;;;;;;5011709;28;20561;-82
2023/04/25 08:49:45;;;;;;;9.20;1.92;;;9.40;99.90;;;;;;4977047;28;20100;-82
2023/04/25 08:52:13;;;;;;;10.25;1.75;;;8.90;99.90;;;;;;4995214;28;20060;-83
2023/04/25 08:54:47;;;;;;;8.18;2.35;;;8.60;99.90;;;;;;5028133;28;20483;-83
2023/04/25 08:57:15;;;;;;;7.38;1.85;;;8.70;99.90;;;;;;4992995;28;20069;-83
2023/04/25 08:59:45;;;;;;;8.15;1.77;;;8.50;99.90;;;;;;5009671;28;20053;-83
2023/04/25 09:02:15;;;;;;;9.98;1.77;;;8.90;99.90;;;;;;5010771;28;20511;-83
2023/04/25 09:04:43;;;;;;;9.65;2.15;;;9.40;99.90;;;;;;5011458;28;20058;-82
2023/04/25 09:07:09;;;;;;;7.15;1.95;;;9.90;99.90;;;;;;4995194;28;20054;-83
2023/04/25 09:09:36;;;;;;;8.10;1.90;;;10.30;99.90;;;;;;4995100;28;20073;-83
2023/04/25 09:12:02;;;;;;;9.38;1.85;;;10.50;99.90;;;;;;5011295;28;20153;-84
2023/04/25 09:14:30;;;;;;;6.85;1.90;;;10.70;99.90;;;;;;4994800;28;20081;-84
2023/04/25 09:16:56;;;;;;;9.38;1.88;;;11.10;99.90;;;;;;5010955;28;20050;-83
2023/04/25 09:19:30;;;;;;;7.50;1.75;;;11.50;99.90;;;;;;5011333;28;20058;-83
2023/04/25 09:21:57;;;;;;;8.27;1.73;;;11.40;99.90;;;;;;5010942;28;20047;-83
2023/04/25 09:24:37;;;;;;;10.20;2.40;;;11.40;99.90;;;;;;5010748;28;20061;-81
2023/04/25 09:27:06;;;;;;;8.13;2.20;;;11.70;99.90;;;;;;5011119;28;20053;-80
2023/04/25 09:29:34;;;;;;;12.25;4.93;;;11.20;99.20;;;;;;4994516;28;20057;-83
2023/04/25 09:32:20;;;;;;;7.32;1.80;;;10.70;99.90;;;;;;5010718;28;20042;-82
2023/04/25 09:34:56;;;;;;;6.47;1.42;;;10.10;99.90;;;;;;4994660;28;20062;-83
2023/04/25 09:37:24;;;;;;;7.22;2.03;;;9.50;99.90;;;;;;5010886;28;20137;-83
2023/04/25 09:39:53;;;;;;;5.78;1.40;;;9.20;99.90;;;;;;4993509;28;20470;-82
2023/04/25 09:42:23;;;;;;;6.95;2.00;;;9.00;99.90;;;;;;4993891;28;20038;-82
2023/04/25 09:44:52;;;;;;;7.32;1.40;;;9.00;99.90;;;;;;4993752;28;20108;-82
2023/04/25 09:47:21;;;;;;;7.05;1.20;;;9.30;99.90;;;;;;5010870;28;20175;-82
2023/04/25 09:49:47;;;;;;;5.68;1.80;;;9.40;99.90;;;;;;5010743;28;20054;-82
2023/04/25 09:52:17;;;;;;;4.40;1.10;;;9.40;99.90;;;;;;5010619;28;20054;-82
2023/04/25 09:54:44;;;;;;;6.40;1.27;;;9.30;99.90;;;;;;5010357;28;20428;-82
2023/04/25 09:57:16;;;;;;;7.30;1.27;;;9.30;99.90;;;;;;4993830;28;20503;-82
2023/04/25 09:59:53;;;;;;;5.53;1.42;;;9.30;99.90;;;;;;5010433;28;20054;-82
2023/04/25 10:02:21;;;;;;;6.30;1.30;;;9.30;99.90;;;;;;4993608;28;20137;-82
2023/04/25 10:04:54;;;;;;;7.95;1.63;;;9.50;99.90;;;;;;5010376;28;20192;-82
2023/04/25 10:07:25;;;;;;;5.80;1.38;;;9.70;99.90;;;;;;4993832;28;20050;-83
2023/04/25 10:09:59;;;;;;;6.00;1.43;;;9.80;99.90;;;;;;5010499;28;20086;-82
2023/04/25 10:12:28;;;;;;;10.45;1.83;;;9.90;99.90;;;;;;5026648;28;20516;-81
2023/04/25 10:14:55;;;;;;;8.98;1.50;;;10.10;99.90;;;;;;5010228;28;20133;-82
2023/04/25 10:17:21;;;;;;;7.78;1.60;;;10.30;99.20;;;;;;4993849;28;20050;-81
2023/04/25 10:19:47;;;;;;;6.25;1.48;;;10.40;99.00;;;;;;4993847;28;20054;-82
2023/04/25 10:22:32;;;;;;;7.03;1.60;;;10.90;99.90;;;;;;5010181;28;20061;-81
2023/04/25 10:24:59;;;;;;;7.85;1.70;;;11.20;97.80;;;;;;4993381;28;20410;-79
2023/04/25 10:27:27;;;;;;;8.73;1.80;;;11.40;97.20;;;;;;5010094;28;20504;-80
2023/04/25 10:30:12;;;;;;;9.77;2.00;;;11.70;98.10;;;;;;5010008;28;20401;-81
2023/04/25 10:32:38;;;;;;;6.88;1.63;;;12.00;96.90;;;;;;4993734;28;20057;-79
2023/04/25 10:35:15;;;;;;;5.60;1.50;;;11.60;97.20;;;;;;4993593;28;20112;-80
2023/04/25 10:37:58;;;;;;;6.93;1.58;;;10.40;99.90;;;;;;5009837;28;20046;-80
2023/04/25 10:40:24;;;;;;;;;;;9.10;99.90;;;;;;5010262;28;20042;-80
2023/04/25 10:42:53;;;;;;;6.57;1.70;;;7.90;99.90;;;;;;5026352;28;19922;-80
2023/04/25 10:45:20;;;;;;;7.10;1.80;;;7.50;99.90;;;;;;5009735;28;20398;-79
2023/04/25 10:47:49;;;;;;;6.40;1.20;;;7.30;99.90;;;;;;5008681;28;20174;-80
2023/04/25 10:50:16;;;;;;;7.13;1.75;;;7.20;99.90;;;;;;5009686;28;20050;-81
2023/04/25 10:52:42;;;;;;;8.02;1.50;;;7.60;99.90;;;;;;5009018;28;20050;-81
2023/04/25 10:55:08;;;;;;;5.65;1.52;;;8.20;99.90;;;;;;5009319;28;20042;-80
2023/04/25 10:57:42;;;;;;;7.72;1.88;;;8.60;99.90;;;;;;5009013;28;20046;-80
2023/04/25 11:00:16;;;;;;;7.00;1.50;;;8.90;99.90;;;;;;5009131;28;20048;-81
2023/04/25 11:02:57;;;;;;;7.47;1.58;;;9.20;99.90;;;;;;5008933;28;20061;-81
2023/04/25 11:05:35;;;;;;;7.20;1.90;;;10.20;99.90;;;;;;5009641;28;20402;-80
2023/04/25 11:08:03;;;;;;;9.40;1.83;;;10.60;99.90;;;;;;5008870;28;20046;-81
2023/04/25 11:10:31;;;;;;;7.30;1.70;;;10.80;99.90;;;;;;5009455;28;20105;-81
2023/04/25 11:12:57;;;;;;;9.95;2.05;;;10.90;99.90;;;;;;5025534;28;20050;-81
2023/04/25 11:15:23;;;;;;;11.27;1.92;;;11.10;99.70;;;;;;4992945;28;20055;-81
2023/04/25 11:17:54;;;;;;;8.65;1.70;;;11.20;99.90;;;;;;5008890;28;20101;-82
2023/04/25 11:20:21;;;;;;;8.52;2.00;;;11.20;99.40;;;;;;4992407;28;20129;-82
2023/04/25 11:22:47;;;;;;;7.97;2.00;;;11.10;99.90;;;;;;4976856;28;20109;-82
2023/04/25 11:25:16;;;;;;;12.77;2.10;;;11.00;99.90;;;;;;5009005;28;20406;-81
2023/04/25 11:27:56;;;;;;;10.57;2.00;;;10.40;99.90;;;;;;5008689;28;20050;-82
2023/04/25 11:30:26;;;;;;;10.43;2.13;;;10.10;99.90;;;;;;5009386;28;20058;-83
2023/04/25 11:32:53;;;;;;;8.40;1.92;;;9.90;99.90;;;;;;5008664;28;20061;-83
2023/04/25 11:35:25;;;;;;;8.13;1.80;;;9.80;99.90;;;;;;4992904;28;20105;-83
2023/04/25 11:37:51;;;;;;;8.93;2.00;;;9.80;99.90;;;;;;4992877;28;20057;-83
2023/04/25 11:40:17;;;;;;;8.30;1.60;;;9.80;99.90;;;;;;4992760;28;20047;-83
2023/04/25 11:42:47;;;;;;;7.65;1.60;;;9.80;99.90;;;;;;4976805;28;20052;-80
2023/04/25 11:45:15;;;;;;;7.50;1.40;;;9.70;99.90;;;;;;5009033;28;20080;-80
2023/04/25 11:47:40;;;;;;;6.03;1.48;;;9.60;99.90;;;;;;5009005;28;20057;-80
2023/04/25 11:50:11;;;;;;;6.85;1.40;;;9.50;99.90;;;;;;5008888;28;20046;-80
2023/04/25 11:52:40;;;;;;;6.38;1.40;;;9.60;99.90;;;;;;5009240;28;20058;-80
2023/04/25 11:55:13;;;;;;;8.10;1.50;;;9.80;99.90;;;;;;5008776;28;20058;-81
2023/04/25 11:57:40;;;;;;;8.90;1.80;;;10.10;99.90;;;;;;4992789;28;20444;-80
2023/04/25 12:00:11;;;;;;;10.73;1.85;;;10.60;99.90;;;;;;4976197;28;20038;-80
2023/04/25 12:02:37;;;;;;;6.32;1.55;;;10.10;99.90;;;;;;4992604;28;20109;-79
2023/04/25 12:05:08;;;;;;;6.13;1.52;;;9.30;99.90;;;;;;5012325;28;20062;-79
2023/04/25 12:07:34;;;;;;;7.70;1.60;;;9.20;99.90;;;;;;5012555;28;20478;-80
2023/04/25 12:10:06;;;;;;;6.07;1.50;;;9.00;99.90;;;;;;5012030;28;20305;-80
2023/04/25 12:12:36;;;;;;;9.00;3.80;;;9.20;99.90;;;;;;5012488;28;20058;-80
2023/04/25 12:15:14;;;;;;;7.85;3.45;;;9.40;99.90;;;;;;5012144;28;20414;-79
2023/04/25 12:17:40;;;;;;;5.80;1.40;;;9.60;99.90;;;;;;5012247;28;20402;-80
2023/04/25 12:20:14;;;;;;;6.70;1.50;;;9.60;99.90;;;;;;5012255;28;20050;-80
2023/04/25 12:22:47;;;;;;;8.52;1.80;;;9.70;99.90;;;;;;5028852;28;20086;-81
2023/04/25 12:25:33;;;;;;;7.95;1.58;;;10.10;99.90;;;;;;5012303;28;20443;-80
2023/04/25 12:28:23;;;;;;;8.25;1.83;;;10.50;99.90;;;;;;5012254;28;20050;-80
2023/04/25 12:31:08;;;;;;;8.95;2.60;;;10.40;99.90;;;;;;5011546;28;20133;-80
2023/04/25 12:33:35;;;;;;;8.05;1.95;;;10.20;99.90;;;;;;4995783;28;20054;-80
2023/04/25 12:36:10;;;;;;;8.25;2.10;;;10.10;99.90;;;;;;5012104;28;20093;-80
2023/04/25 12:38:38;;;;;;;10.35;3.00;;;10.30;99.90;;;;;;5012065;28;20050;-80
2023/04/25 12:41:04;;;;;;;11.05;2.58;;;10.40;99.90;;;;;;5011893;28;20054;-80
2023/04/25 12:43:30;;;;;;;25.70;8.20;;;10.50;99.90;;;;;;5011335;28;20105;-80
2023/04/25 12:45:57;;;;;;;9.00;2.30;;;10.50;99.90;;;;;;5011900;28;20047;-79
2023/04/25 12:48:23;;;;;;;8.55;2.10;;;10.20;99.90;;;;;;5028414;28;20058;-79